Rivne, Ukraine
Current Conditions -  °F | °C
As of 4:30 PM on Friday 19 Dec 2014 (Local Time) from UKLR Reporting Station
Light Rain Light Rain  
Wind Chill: 39°   Ceiling: 600
Heat Index: 46°   Visibility: 1.1mi
Dew Point: 45°   Wind: 18mph
Humidity: 93%   Direction: 260°W
Pressure: 29.8"   Gusts: NA
Location:  50.62°N, 26.25°E
Report Text: UKLR 191330Z 26008MPS 1900 -RA BR OVC006 08/07 Q1009 NOSIG
Loading
Personal Weather Stations






























Interactive Weather Map New forecast layout! Learn more

10-Day Weather Forecast

Advertisements
Track Severe Weather on mobile